sensor_id;sensor_type;location;lat;lon;timestamp;P1;durP1;ratioP1;P2;durP2;ratioP2
16472;SDS011;8347;52.486;13.432;2023-06-10T00:00:06;11.65;;;4.03;;
16472;SDS011;8347;52.486;13.432;2023-06-10T00:02:59;5.13;;;3.95;;
16472;SDS011;8347;52.486;13.432;2023-06-10T00:05:46;8.45;;;4.75;;
16472;SDS011;8347;52.486;13.432;2023-06-10T00:08:32;10.95;;;4.30;;
16472;SDS011;8347;52.486;13.432;2023-06-10T00:11:18;7.47;;;4.40;;
16472;SDS011;8347;52.486;13.432;2023-06-10T00:14:06;9.98;;;4.68;;
16472;SDS011;8347;52.486;13.432;2023-06-10T00:16:52;7.10;;;4.18;;
16472;SDS011;8347;52.486;13.432;2023-06-10T00:19:39;7.95;;;4.75;;
16472;SDS011;8347;52.486;13.432;2023-06-10T00:22:26;10.90;;;3.95;;
16472;SDS011;8347;52.486;13.432;2023-06-10T00:25:15;7.20;;;4.53;;
16472;SDS011;8347;52.486;13.432;2023-06-10T00:28:02;8.68;;;4.47;;
16472;SDS011;8347;52.486;13.432;2023-06-10T00:30:50;9.68;;;4.35;;
16472;SDS011;8347;52.486;13.432;2023-06-10T00:33:36;8.38;;;4.55;;
16472;SDS011;8347;52.486;13.432;2023-06-10T00:36:23;9.65;;;4.93;;
16472;SDS011;8347;52.486;13.432;2023-06-10T00:39:09;12.07;;;4.85;;
16472;SDS011;8347;52.486;13.432;2023-06-10T00:41:56;12.25;;;5.15;;
16472;SDS011;8347;52.486;13.432;2023-06-10T00:44:43;9.55;;;4.32;;
16472;SDS011;8347;52.486;13.432;2023-06-10T00:47:29;12.75;;;4.95;;
16472;SDS011;8347;52.486;13.432;2023-06-10T00:50:17;11.73;;;4.82;;
16472;SDS011;8347;52.486;13.432;2023-06-10T00:53:04;8.82;;;4.60;;
16472;SDS011;8347;52.486;13.432;2023-06-10T00:55:52;12.25;;;4.35;;
16472;SDS011;8347;52.486;13.432;2023-06-10T00:58:39;8.52;;;4.28;;
16472;SDS011;8347;52.486;13.432;2023-06-10T01:01:25;11.70;;;4.40;;
16472;SDS011;8347;52.486;13.432;2023-06-10T01:04:13;8.40;;;4.38;;
16472;SDS011;8347;52.486;13.432;2023-06-10T01:07:03;9.57;;;4.90;;
16472;SDS011;8347;52.486;13.432;2023-06-10T01:10:02;10.25;;;4.70;;
16472;SDS011;8347;52.486;13.432;2023-06-10T01:12:58;10.60;;;4.22;;
16472;SDS011;8347;52.486;13.432;2023-06-10T01:15:49;8.93;;;4.07;;
16472;SDS011;8347;52.486;13.432;2023-06-10T01:18:37;8.63;;;4.00;;
16472;SDS011;8347;52.486;13.432;2023-06-10T01:21:24;10.63;;;4.43;;
16472;SDS011;8347;52.486;13.432;2023-06-10T01:24:10;11.30;;;4.22;;
16472;SDS011;8347;52.486;13.432;2023-06-10T01:26:59;8.77;;;3.83;;
16472;SDS011;8347;52.486;13.432;2023-06-10T01:29:49;15.10;;;4.82;;
16472;SDS011;8347;52.486;13.432;2023-06-10T01:32:46;10.38;;;4.35;;
16472;SDS011;8347;52.486;13.432;2023-06-10T01:35:34;7.32;;;4.28;;
16472;SDS011;8347;52.486;13.432;2023-06-10T01:38:22;13.30;;;4.82;;
16472;SDS011;8347;52.486;13.432;2023-06-10T01:41:15;7.57;;;4.00;;
16472;SDS011;8347;52.486;13.432;2023-06-10T01:44:03;10.98;;;4.97;;
16472;SDS011;8347;52.486;13.432;2023-06-10T01:46:50;11.90;;;4.47;;
16472;SDS011;8347;52.486;13.432;2023-06-10T01:49:36;9.90;;;4.15;;
16472;SDS011;8347;52.486;13.432;2023-06-10T01:52:23;10.23;;;4.28;;
16472;SDS011;8347;52.486;13.432;2023-06-10T01:55:10;19.63;;;5.10;;
16472;SDS011;8347;52.486;13.432;2023-06-10T01:57:56;8.07;;;4.15;;
16472;SDS011;8347;52.486;13.432;2023-06-10T02:00:43;12.50;;;5.00;;
16472;SDS011;8347;52.486;13.432;2023-06-10T02:03:29;9.85;;;4.45;;
16472;SDS011;8347;52.486;13.432;2023-06-10T02:06:16;15.13;;;5.15;;
16472;SDS011;8347;52.486;13.432;2023-06-10T02:09:02;10.50;;;4.40;;
16472;SDS011;8347;52.486;13.432;2023-06-10T02:11:49;16.98;;;5.93;;
16472;SDS011;8347;52.486;13.432;2023-06-10T02:14:36;15.35;;;5.03;;
16472;SDS011;8347;52.486;13.432;2023-06-10T02:17:22;13.32;;;5.50;;
16472;SDS011;8347;52.486;13.432;2023-06-10T02:20:09;11.90;;;5.10;;
16472;SDS011;8347;52.486;13.432;2023-06-10T02:22:56;8.07;;;4.40;;
16472;SDS011;8347;52.486;13.432;2023-06-10T02:25:43;9.20;;;4.53;;
16472;SDS011;8347;52.486;13.432;2023-06-10T02:28:30;8.00;;;4.47;;
16472;SDS011;8347;52.486;13.432;2023-06-10T02:31:18;7.60;;;4.55;;
16472;SDS011;8347;52.486;13.432;2023-06-10T02:34:05;10.15;;;4.57;;
16472;SDS011;8347;52.486;13.432;2023-06-10T02:36:51;9.20;;;4.90;;
16472;SDS011;8347;52.486;13.432;2023-06-10T02:39:41;10.13;;;4.70;;
16472;SDS011;8347;52.486;13.432;2023-06-10T02:42:30;10.93;;;4.47;;
16472;SDS011;8347;52.486;13.432;2023-06-10T02:45:17;7.80;;;4.25;;
16472;SDS011;8347;52.486;13.432;2023-06-10T02:48:04;9.20;;;4.45;;
16472;SDS011;8347;52.486;13.432;2023-06-10T02:50:52;11.15;;;4.80;;
16472;SDS011;8347;52.486;13.432;2023-06-10T02:53:48;8.55;;;4.93;;
16472;SDS011;8347;52.486;13.432;2023-06-10T02:56:35;15.27;;;4.88;;
16472;SDS011;8347;52.486;13.432;2023-06-10T02:59:25;9.45;;;6.20;;
16472;SDS011;8347;52.486;13.432;2023-06-10T03:02:13;11.38;;;4.85;;
16472;SDS011;8347;52.486;13.432;2023-06-10T03:05:06;12.32;;;4.68;;
16472;SDS011;8347;52.486;13.432;2023-06-10T03:07:58;12.57;;;4.65;;
16472;SDS011;8347;52.486;13.432;2023-06-10T03:10:44;14.20;;;6.10;;
16472;SDS011;8347;52.486;13.432;2023-06-10T03:13:35;8.63;;;5.18;;
16472;SDS011;8347;52.486;13.432;2023-06-10T03:16:22;8.00;;;4.95;;
16472;SDS011;8347;52.486;13.432;2023-06-10T03:19:08;13.43;;;5.15;;
16472;SDS011;8347;52.486;13.432;2023-06-10T03:22:07;18.27;;;6.97;;
16472;SDS011;8347;52.486;13.432;2023-06-10T03:24:56;7.75;;;4.30;;
16472;SDS011;8347;52.486;13.432;2023-06-10T03:27:43;10.55;;;4.72;;
16472;SDS011;8347;52.486;13.432;2023-06-10T03:30:31;10.98;;;4.97;;
16472;SDS011;8347;52.486;13.432;2023-06-10T03:33:19;11.95;;;5.30;;
16472;SDS011;8347;52.486;13.432;2023-06-10T03:36:05;10.25;;;4.90;;
16472;SDS011;8347;52.486;13.432;2023-06-10T03:38:52;9.60;;;4.93;;
16472;SDS011;8347;52.486;13.432;2023-06-10T03:41:40;9.23;;;5.25;;
16472;SDS011;8347;52.486;13.432;2023-06-10T03:44:28;12.40;;;4.30;;
16472;SDS011;8347;52.486;13.432;2023-06-10T03:47:15;8.52;;;4.63;;
16472;SDS011;8347;52.486;13.432;2023-06-10T03:50:04;10.50;;;4.78;;
16472;SDS011;8347;52.486;13.432;2023-06-10T03:52:52;11.95;;;5.15;;
16472;SDS011;8347;52.486;13.432;2023-06-10T03:55:42;13.63;;;5.43;;
16472;SDS011;8347;52.486;13.432;2023-06-10T03:58:29;7.28;;;4.55;;
16472;SDS011;8347;52.486;13.432;2023-06-10T04:01:16;9.27;;;5.55;;
16472;SDS011;8347;52.486;13.432;2023-06-10T04:04:06;9.15;;;5.13;;
16472;SDS011;8347;52.486;13.432;2023-06-10T04:06:54;7.60;;;5.13;;
16472;SDS011;8347;52.486;13.432;2023-06-10T04:09:42;7.75;;;5.18;;
16472;SDS011;8347;52.486;13.432;2023-06-10T04:12:29;8.80;;;4.70;;
16472;SDS011;8347;52.486;13.432;2023-06-10T04:15:15;10.07;;;5.25;;
16472;SDS011;8347;52.486;13.432;2023-06-10T04:18:02;16.73;;;5.40;;
16472;SDS011;8347;52.486;13.432;2023-06-10T04:20:49;10.85;;;5.55;;
16472;SDS011;8347;52.486;13.432;2023-06-10T04:23:36;11.02;;;6.18;;
16472;SDS011;8347;52.486;13.432;2023-06-10T04:26:24;9.88;;;5.50;;
16472;SDS011;8347;52.486;13.432;2023-06-10T04:29:12;13.68;;;5.40;;
16472;SDS011;8347;52.486;13.432;2023-06-10T04:31:58;14.43;;;6.90;;
16472;SDS011;8347;52.486;13.432;2023-06-10T04:34:47;11.95;;;6.97;;
16472;SDS011;8347;52.486;13.432;2023-06-10T04:37:35;11.57;;;5.63;;
16472;SDS011;8347;52.486;13.432;2023-06-10T04:40:21;12.82;;;5.88;;
16472;SDS011;8347;52.486;13.432;2023-06-10T04:43:08;10.18;;;5.63;;
16472;SDS011;8347;52.486;13.432;2023-06-10T04:45:56;12.43;;;5.18;;
16472;SDS011;8347;52.486;13.432;2023-06-10T04:48:43;11.38;;;5.55;;
16472;SDS011;8347;52.486;13.432;2023-06-10T04:51:30;9.55;;;4.97;;
16472;SDS011;8347;52.486;13.432;2023-06-10T04:54:21;10.93;;;5.95;;
16472;SDS011;8347;52.486;13.432;2023-06-10T04:57:07;10.05;;;5.82;;
16472;SDS011;8347;52.486;13.432;2023-06-10T04:59:54;12.57;;;5.40;;
16472;SDS011;8347;52.486;13.432;2023-06-10T05:02:40;12.68;;;5.88;;
16472;SDS011;8347;52.486;13.432;2023-06-10T05:05:26;9.00;;;5.47;;
16472;SDS011;8347;52.486;13.432;2023-06-10T05:08:13;9.60;;;6.20;;
16472;SDS011;8347;52.486;13.432;2023-06-10T05:10:59;8.90;;;6.07;;
16472;SDS011;8347;52.486;13.432;2023-06-10T05:13:46;9.02;;;5.53;;
16472;SDS011;8347;52.486;13.432;2023-06-10T05:16:32;14.32;;;5.93;;
16472;SDS011;8347;52.486;13.432;2023-06-10T05:19:19;13.63;;;5.18;;
16472;SDS011;8347;52.486;13.432;2023-06-10T05:22:05;11.00;;;5.22;;
16472;SDS011;8347;52.486;13.432;2023-06-10T05:24:52;12.70;;;5.30;;
16472;SDS011;8347;52.486;13.432;2023-06-10T05:27:38;10.10;;;5.55;;
16472;SDS011;8347;52.486;13.432;2023-06-10T05:30:27;11.77;;;6.40;;
16472;SDS011;8347;52.486;13.432;2023-06-10T05:33:14;10.15;;;5.57;;
16472;SDS011;8347;52.486;13.432;2023-06-10T05:36:00;12.48;;;6.03;;
16472;SDS011;8347;52.486;13.432;2023-06-10T05:38:47;13.18;;;5.57;;
16472;SDS011;8347;52.486;13.432;2023-06-10T05:41:33;7.60;;;4.88;;
16472;SDS011;8347;52.486;13.432;2023-06-10T05:44:20;11.68;;;5.68;;
16472;SDS011;8347;52.486;13.432;2023-06-10T05:47:06;10.75;;;5.97;;
16472;SDS011;8347;52.486;13.432;2023-06-10T05:49:53;12.75;;;5.15;;
16472;SDS011;8347;52.486;13.432;2023-06-10T05:52:39;12.60;;;5.55;;
16472;SDS011;8347;52.486;13.432;2023-06-10T05:55:26;9.23;;;5.60;;
16472;SDS011;8347;52.486;13.432;2023-06-10T05:58:13;9.88;;;5.28;;
16472;SDS011;8347;52.486;13.432;2023-06-10T06:01:00;10.25;;;6.38;;
16472;SDS011;8347;52.486;13.432;2023-06-10T06:03:46;15.57;;;6.13;;
16472;SDS011;8347;52.486;13.432;2023-06-10T06:06:32;7.38;;;5.43;;
16472;SDS011;8347;52.486;13.432;2023-06-10T06:09:20;10.88;;;5.40;;
16472;SDS011;8347;52.486;13.432;2023-06-10T06:12:08;9.23;;;5.43;;
16472;SDS011;8347;52.486;13.432;2023-06-10T06:14:55;9.13;;;5.75;;
16472;SDS011;8347;52.486;13.432;2023-06-10T06:17:41;12.25;;;6.45;;
16472;SDS011;8347;52.486;13.432;2023-06-10T06:20:28;11.27;;;5.28;;
16472;SDS011;8347;52.486;13.432;2023-06-10T06:23:14;8.80;;;5.93;;
16472;SDS011;8347;52.486;13.432;2023-06-10T06:26:01;11.70;;;6.18;;
16472;SDS011;8347;52.486;13.432;2023-06-10T06:28:48;8.77;;;5.80;;
16472;SDS011;8347;52.486;13.432;2023-06-10T06:31:35;13.15;;;6.53;;
16472;SDS011;8347;52.486;13.432;2023-06-10T06:34:21;9.13;;;6.30;;
16472;SDS011;8347;52.486;13.432;2023-06-10T06:37:08;8.07;;;6.28;;
16472;SDS011;8347;52.486;13.432;2023-06-10T06:39:58;8.20;;;6.05;;
16472;SDS011;8347;52.486;13.432;2023-06-10T06:42:44;11.45;;;7.07;;
16472;SDS011;8347;52.486;13.432;2023-06-10T06:45:37;11.35;;;6.38;;
16472;SDS011;8347;52.486;13.432;2023-06-10T06:48:23;8.02;;;5.80;;
16472;SDS011;8347;52.486;13.432;2023-06-10T06:51:10;7.97;;;5.32;;
16472;SDS011;8347;52.486;13.432;2023-06-10T06:53:56;8.65;;;6.10;;
16472;SDS011;8347;52.486;13.432;2023-06-10T06:56:44;10.73;;;5.53;;
16472;SDS011;8347;52.486;13.432;2023-06-10T06:59:31;10.20;;;6.03;;
16472;SDS011;8347;52.486;13.432;2023-06-10T07:02:17;9.02;;;6.00;;
16472;SDS011;8347;52.486;13.432;2023-06-10T07:05:04;10.10;;;5.75;;
16472;SDS011;8347;52.486;13.432;2023-06-10T07:07:52;8.02;;;5.78;;
16472;SDS011;8347;52.486;13.432;2023-06-10T07:10:40;13.00;;;7.45;;
16472;SDS011;8347;52.486;13.432;2023-06-10T07:13:27;9.35;;;6.82;;
16472;SDS011;8347;52.486;13.432;2023-06-10T07:16:13;8.20;;;6.22;;
16472;SDS011;8347;52.486;13.432;2023-06-10T07:19:00;13.35;;;7.13;;
16472;SDS011;8347;52.486;13.432;2023-06-10T07:21:47;11.48;;;6.65;;
16472;SDS011;8347;52.486;13.432;2023-06-10T07:24:34;14.57;;;7.00;;
16472;SDS011;8347;52.486;13.432;2023-06-10T07:27:20;10.10;;;6.07;;
16472;SDS011;8347;52.486;13.432;2023-06-10T07:30:07;10.38;;;5.18;;
16472;SDS011;8347;52.486;13.432;2023-06-10T07:32:54;12.82;;;7.35;;
16472;SDS011;8347;52.486;13.432;2023-06-10T07:35:41;9.70;;;6.65;;
16472;SDS011;8347;52.486;13.432;2023-06-10T07:38:28;11.32;;;7.25;;
16472;SDS011;8347;52.486;13.432;2023-06-10T07:41:15;14.20;;;7.07;;
16472;SDS011;8347;52.486;13.432;2023-06-10T07:44:03;11.80;;;6.70;;
16472;SDS011;8347;52.486;13.432;2023-06-10T07:46:50;12.25;;;6.45;;
16472;SDS011;8347;52.486;13.432;2023-06-10T07:49:37;9.32;;;6.35;;
16472;SDS011;8347;52.486;13.432;2023-06-10T07:52:23;8.85;;;6.25;;
16472;SDS011;8347;52.486;13.432;2023-06-10T07:55:11;9.48;;;5.78;;
16472;SDS011;8347;52.486;13.432;2023-06-10T07:57:58;14.18;;;6.93;;
16472;SDS011;8347;52.486;13.432;2023-06-10T08:00:44;10.48;;;7.38;;
16472;SDS011;8347;52.486;13.432;2023-06-10T08:03:31;11.77;;;6.35;;
16472;SDS011;8347;52.486;13.432;2023-06-10T08:06:17;10.98;;;6.70;;
16472;SDS011;8347;52.486;13.432;2023-06-10T08:09:04;12.05;;;6.50;;
16472;SDS011;8347;52.486;13.432;2023-06-10T08:11:50;11.63;;;7.15;;
16472;SDS011;8347;52.486;13.432;2023-06-10T08:14:37;13.35;;;5.95;;
16472;SDS011;8347;52.486;13.432;2023-06-10T08:17:24;8.88;;;6.63;;
16472;SDS011;8347;52.486;13.432;2023-06-10T08:20:10;11.20;;;6.43;;
16472;SDS011;8347;52.486;13.432;2023-06-10T08:22:57;7.95;;;6.45;;
16472;SDS011;8347;52.486;13.432;2023-06-10T08:25:44;8.65;;;6.15;;
16472;SDS011;8347;52.486;13.432;2023-06-10T08:28:30;8.07;;;6.20;;
16472;SDS011;8347;52.486;13.432;2023-06-10T08:31:16;11.93;;;6.35;;
16472;SDS011;8347;52.486;13.432;2023-06-10T08:34:03;12.75;;;6.63;;
16472;SDS011;8347;52.486;13.432;2023-06-10T08:36:49;8.98;;;6.38;;
16472;SDS011;8347;52.486;13.432;2023-06-10T08:39:38;11.30;;;6.40;;
16472;SDS011;8347;52.486;13.432;2023-06-10T08:42:31;10.73;;;6.68;;
16472;SDS011;8347;52.486;13.432;2023-06-10T08:45:19;7.78;;;5.95;;
16472;SDS011;8347;52.486;13.432;2023-06-10T08:48:07;11.57;;;7.20;;
16472;SDS011;8347;52.486;13.432;2023-06-10T08:50:55;9.20;;;6.55;;
16472;SDS011;8347;52.486;13.432;2023-06-10T08:53:47;12.15;;;6.95;;
16472;SDS011;8347;52.486;13.432;2023-06-10T08:56:35;8.10;;;6.85;;
16472;SDS011;8347;52.486;13.432;2023-06-10T08:59:24;8.38;;;6.25;;
16472;SDS011;8347;52.486;13.432;2023-06-10T09:02:11;11.13;;;7.65;;
16472;SDS011;8347;52.486;13.432;2023-06-10T09:04:58;11.75;;;6.20;;
16472;SDS011;8347;52.486;13.432;2023-06-10T09:07:45;13.20;;;6.93;;
16472;SDS011;8347;52.486;13.432;2023-06-10T09:10:37;9.63;;;6.07;;
16472;SDS011;8347;52.486;13.432;2023-06-10T09:13:23;10.80;;;6.47;;
16472;SDS011;8347;52.486;13.432;2023-06-10T09:16:10;9.07;;;6.05;;
16472;SDS011;8347;52.486;13.432;2023-06-10T09:18:58;9.23;;;6.30;;
16472;SDS011;8347;52.486;13.432;2023-06-10T09:21:45;11.02;;;6.35;;
16472;SDS011;8347;52.486;13.432;2023-06-10T09:24:31;12.13;;;6.60;;
16472;SDS011;8347;52.486;13.432;2023-06-10T09:27:19;7.53;;;6.40;;
16472;SDS011;8347;52.486;13.432;2023-06-10T09:30:06;10.63;;;7.53;;
16472;SDS011;8347;52.486;13.432;2023-06-10T09:32:53;9.98;;;6.40;;
16472;SDS011;8347;52.486;13.432;2023-06-10T09:35:45;14.68;;;7.35;;
16472;SDS011;8347;52.486;13.432;2023-06-10T09:38:32;7.93;;;7.03;;
16472;SDS011;8347;52.486;13.432;2023-06-10T09:41:20;11.60;;;6.72;;
16472;SDS011;8347;52.486;13.432;2023-06-10T09:44:13;11.95;;;6.35;;
16472;SDS011;8347;52.486;13.432;2023-06-10T09:47:00;9.52;;;6.03;;
16472;SDS011;8347;52.486;13.432;2023-06-10T09:49:50;12.15;;;6.32;;
16472;SDS011;8347;52.486;13.432;2023-06-10T09:52:39;6.65;;;5.57;;
16472;SDS011;8347;52.486;13.432;2023-06-10T09:55:25;14.10;;;6.03;;
16472;SDS011;8347;52.486;13.432;2023-06-10T09:58:12;11.65;;;6.15;;
16472;SDS011;8347;52.486;13.432;2023-06-10T10:00:58;9.30;;;6.32;;
16472;SDS011;8347;52.486;13.432;2023-06-10T10:03:46;12.32;;;6.18;;
16472;SDS011;8347;52.486;13.432;2023-06-10T10:06:33;11.90;;;6.13;;
16472;SDS011;8347;52.486;13.432;2023-06-10T10:09:20;11.00;;;6.05;;
16472;SDS011;8347;52.486;13.432;2023-06-10T10:12:10;14.77;;;6.47;;
16472;SDS011;8347;52.486;13.432;2023-06-10T10:14:57;7.90;;;5.82;;
16472;SDS011;8347;52.486;13.432;2023-06-10T10:17:46;9.25;;;5.90;;
16472;SDS011;8347;52.486;13.432;2023-06-10T10:20:42;9.32;;;6.80;;
16472;SDS011;8347;52.486;13.432;2023-06-10T10:23:38;9.30;;;6.38;;
16472;SDS011;8347;52.486;13.432;2023-06-10T10:26:25;14.70;;;6.07;;
16472;SDS011;8347;52.486;13.432;2023-06-10T10:29:28;8.38;;;6.03;;
16472;SDS011;8347;52.486;13.432;2023-06-10T10:32:16;9.85;;;5.90;;
16472;SDS011;8347;52.486;13.432;2023-06-10T10:37:54;5.80;;;4.97;;
16472;SDS011;8347;52.486;13.432;2023-06-10T10:40:41;6.07;;;4.97;;
16472;SDS011;8347;52.486;13.432;2023-06-10T10:43:29;5.88;;;4.30;;
16472;SDS011;8347;52.486;13.432;2023-06-10T10:46:16;11.38;;;4.50;;
16472;SDS011;8347;52.486;13.432;2023-06-10T10:49:04;4.13;;;3.78;;
16472;SDS011;8347;52.486;13.432;2023-06-10T10:51:57;4.15;;;3.75;;
16472;SDS011;8347;52.486;13.432;2023-06-10T10:54:45;5.95;;;4.15;;
16472;SDS011;8347;52.486;13.432;2023-06-10T10:57:32;5.63;;;4.40;;
16472;SDS011;8347;52.486;13.432;2023-06-10T11:00:28;5.50;;;4.03;;
16472;SDS011;8347;52.486;13.432;2023-06-10T11:03:19;7.05;;;4.45;;
16472;SDS011;8347;52.486;13.432;2023-06-10T11:06:05;4.97;;;4.32;;
16472;SDS011;8347;52.486;13.432;2023-06-10T11:08:58;5.32;;;4.20;;
16472;SDS011;8347;52.486;13.432;2023-06-10T11:11:49;5.97;;;4.40;;
16472;SDS011;8347;52.486;13.432;2023-06-10T11:14:36;6.50;;;4.20;;
16472;SDS011;8347;52.486;13.432;2023-06-10T11:17:24;5.05;;;4.15;;
16472;SDS011;8347;52.486;13.432;2023-06-10T11:20:11;8.13;;;4.18;;
16472;SDS011;8347;52.486;13.432;2023-06-10T11:22:58;6.47;;;4.65;;
16472;SDS011;8347;52.486;13.432;2023-06-10T11:25:45;6.47;;;4.85;;
16472;SDS011;8347;52.486;13.432;2023-06-10T11:28:32;8.27;;;4.75;;
16472;SDS011;8347;52.486;13.432;2023-06-10T11:31:19;6.30;;;4.57;;
16472;SDS011;8347;52.486;13.432;2023-06-10T11:34:06;4.90;;;4.20;;
16472;SDS011;8347;52.486;13.432;2023-06-10T11:36:53;9.77;;;5.82;;
16472;SDS011;8347;52.486;13.432;2023-06-10T11:39:40;6.65;;;5.25;;
16472;SDS011;8347;52.486;13.432;2023-06-10T11:42:26;6.30;;;5.07;;
16472;SDS011;8347;52.486;13.432;2023-06-10T11:45:16;9.38;;;5.40;;
16472;SDS011;8347;52.486;13.432;2023-06-10T11:48:03;7.18;;;5.32;;
16472;SDS011;8347;52.486;13.432;2023-06-10T11:50:50;8.15;;;4.80;;
16472;SDS011;8347;52.486;13.432;2023-06-10T11:53:39;5.70;;;5.07;;
16472;SDS011;8347;52.486;13.432;2023-06-10T11:56:26;6.25;;;5.25;;
16472;SDS011;8347;52.486;13.432;2023-06-10T11:59:14;9.35;;;4.82;;
16472;SDS011;8347;52.486;13.432;2023-06-10T12:02:00;6.25;;;4.50;;
16472;SDS011;8347;52.486;13.432;2023-06-10T12:04:47;9.13;;;5.13;;
16472;SDS011;8347;52.486;13.432;2023-06-10T12:07:33;6.78;;;4.43;;
16472;SDS011;8347;52.486;13.432;2023-06-10T12:10:20;10.10;;;5.15;;
16472;SDS011;8347;52.486;13.432;2023-06-10T12:13:07;7.63;;;4.32;;
16472;SDS011;8347;52.486;13.432;2023-06-10T12:15:54;8.32;;;4.60;;
16472;SDS011;8347;52.486;13.432;2023-06-10T12:18:51;7.45;;;4.38;;
16472;SDS011;8347;52.486;13.432;2023-06-10T12:21:47;6.82;;;4.47;;
16472;SDS011;8347;52.486;13.432;2023-06-10T12:24:42;7.13;;;4.32;;
16472;SDS011;8347;52.486;13.432;2023-06-10T12:27:30;5.88;;;4.97;;
16472;SDS011;8347;52.486;13.432;2023-06-10T12:30:21;6.78;;;5.07;;
16472;SDS011;8347;52.486;13.432;2023-06-10T12:33:15;7.07;;;5.68;;
16472;SDS011;8347;52.486;13.432;2023-06-10T12:36:05;10.23;;;5.70;;
16472;SDS011;8347;52.486;13.432;2023-06-10T12:39:02;8.52;;;6.05;;
16472;SDS011;8347;52.486;13.432;2023-06-10T12:41:49;6.57;;;5.97;;
16472;SDS011;8347;52.486;13.432;2023-06-10T12:44:40;7.18;;;5.95;;
16472;SDS011;8347;52.486;13.432;2023-06-10T12:47:30;8.20;;;6.50;;
16472;SDS011;8347;52.486;13.432;2023-06-10T12:50:18;7.00;;;5.65;;
16472;SDS011;8347;52.486;13.432;2023-06-10T12:53:05;11.05;;;6.78;;
16472;SDS011;8347;52.486;13.432;2023-06-10T12:55:51;11.90;;;7.10;;
16472;SDS011;8347;52.486;13.432;2023-06-10T12:58:38;8.77;;;6.78;;
16472;SDS011;8347;52.486;13.432;2023-06-10T13:01:24;7.63;;;6.60;;
16472;SDS011;8347;52.486;13.432;2023-06-10T13:04:11;9.32;;;6.60;;
16472;SDS011;8347;52.486;13.432;2023-06-10T13:06:58;7.45;;;6.75;;
16472;SDS011;8347;52.486;13.432;2023-06-10T13:09:44;8.38;;;7.55;;
16472;SDS011;8347;52.486;13.432;2023-06-10T13:12:34;7.30;;;6.22;;
16472;SDS011;8347;52.486;13.432;2023-06-10T13:15:22;10.35;;;6.85;;
16472;SDS011;8347;52.486;13.432;2023-06-10T13:18:09;8.07;;;6.40;;
16472;SDS011;8347;52.486;13.432;2023-06-10T13:20:55;9.23;;;7.90;;
16472;SDS011;8347;52.486;13.432;2023-06-10T13:23:43;7.25;;;6.47;;
16472;SDS011;8347;52.486;13.432;2023-06-10T13:26:30;7.18;;;6.47;;
16472;SDS011;8347;52.486;13.432;2023-06-10T13:29:17;8.18;;;7.38;;
16472;SDS011;8347;52.486;13.432;2023-06-10T13:32:03;7.65;;;6.85;;
16472;SDS011;8347;52.486;13.432;2023-06-10T13:34:50;15.07;;;7.63;;
16472;SDS011;8347;52.486;13.432;2023-06-10T13:37:37;8.07;;;6.53;;
16472;SDS011;8347;52.486;13.432;2023-06-10T13:40:23;8.57;;;6.95;;
16472;SDS011;8347;52.486;13.432;2023-06-10T13:43:10;10.98;;;7.13;;
16472;SDS011;8347;52.486;13.432;2023-06-10T13:45:57;8.07;;;6.00;;
16472;SDS011;8347;52.486;13.432;2023-06-10T13:48:43;10.07;;;6.60;;
16472;SDS011;8347;52.486;13.432;2023-06-10T13:51:30;8.65;;;6.30;;
16472;SDS011;8347;52.486;13.432;2023-06-10T13:54:16;7.97;;;6.68;;
16472;SDS011;8347;52.486;13.432;2023-06-10T13:57:03;11.13;;;7.00;;
16472;SDS011;8347;52.486;13.432;2023-06-10T13:59:50;10.18;;;7.40;;
16472;SDS011;8347;52.486;13.432;2023-06-10T14:02:37;8.77;;;6.18;;
16472;SDS011;8347;52.486;13.432;2023-06-10T14:05:24;10.55;;;6.82;;
16472;SDS011;8347;52.486;13.432;2023-06-10T14:08:10;7.57;;;6.78;;
16472;SDS011;8347;52.486;13.432;2023-06-10T14:10:57;7.80;;;7.00;;
16472;SDS011;8347;52.486;13.432;2023-06-10T14:13:44;9.02;;;5.85;;
16472;SDS011;8347;52.486;13.432;2023-06-10T14:16:30;7.72;;;5.90;;
16472;SDS011;8347;52.486;13.432;2023-06-10T14:19:17;6.90;;;5.88;;
16472;SDS011;8347;52.486;13.432;2023-06-10T14:22:03;7.05;;;5.55;;
16472;SDS011;8347;52.486;13.432;2023-06-10T14:24:49;8.68;;;5.50;;
16472;SDS011;8347;52.486;13.432;2023-06-10T14:27:36;6.70;;;6.10;;
16472;SDS011;8347;52.486;13.432;2023-06-10T14:30:23;6.57;;;5.68;;
16472;SDS011;8347;52.486;13.432;2023-06-10T14:33:10;6.95;;;5.95;;
16472;SDS011;8347;52.486;13.432;2023-06-10T14:35:57;6.22;;;5.63;;
16472;SDS011;8347;52.486;13.432;2023-06-10T14:38:43;8.55;;;6.05;;
16472;SDS011;8347;52.486;13.432;2023-06-10T14:41:29;6.47;;;5.53;;
16472;SDS011;8347;52.486;13.432;2023-06-10T14:44:16;8.18;;;5.55;;
16472;SDS011;8347;52.486;13.432;2023-06-10T14:47:02;7.60;;;4.97;;
16472;SDS011;8347;52.486;13.432;2023-06-10T14:49:49;6.15;;;5.60;;
16472;SDS011;8347;52.486;13.432;2023-06-10T14:52:36;7.15;;;5.57;;
16472;SDS011;8347;52.486;13.432;2023-06-10T14:55:22;5.18;;;4.68;;
16472;SDS011;8347;52.486;13.432;2023-06-10T14:58:08;8.32;;;5.55;;
16472;SDS011;8347;52.486;13.432;2023-06-10T15:00:55;6.07;;;5.20;;
16472;SDS011;8347;52.486;13.432;2023-06-10T15:03:41;7.30;;;5.25;;
16472;SDS011;8347;52.486;13.432;2023-06-10T15:06:28;9.57;;;6.57;;
16472;SDS011;8347;52.486;13.432;2023-06-10T15:09:14;10.05;;;5.32;;
16472;SDS011;8347;52.486;13.432;2023-06-10T15:12:01;9.05;;;5.57;;
16472;SDS011;8347;52.486;13.432;2023-06-10T15:14:49;6.22;;;5.63;;
16472;SDS011;8347;52.486;13.432;2023-06-10T15:17:37;8.05;;;5.47;;
16472;SDS011;8347;52.486;13.432;2023-06-10T15:20:24;8.70;;;5.45;;
16472;SDS011;8347;52.486;13.432;2023-06-10T15:23:10;10.70;;;5.72;;
16472;SDS011;8347;52.486;13.432;2023-06-10T15:25:57;6.63;;;4.68;;
16472;SDS011;8347;52.486;13.432;2023-06-10T15:28:44;8.20;;;5.75;;
16472;SDS011;8347;52.486;13.432;2023-06-10T15:31:31;6.07;;;5.47;;
16472;SDS011;8347;52.486;13.432;2023-06-10T15:34:18;8.48;;;4.90;;
16472;SDS011;8347;52.486;13.432;2023-06-10T15:37:04;8.05;;;5.00;;
16472;SDS011;8347;52.486;13.432;2023-06-10T15:39:51;14.13;;;5.40;;
16472;SDS011;8347;52.486;13.432;2023-06-10T15:42:37;12.27;;;6.07;;
16472;SDS011;8347;52.486;13.432;2023-06-10T15:45:24;11.52;;;5.10;;
16472;SDS011;8347;52.486;13.432;2023-06-10T15:48:10;8.40;;;5.68;;
16472;SDS011;8347;52.486;13.432;2023-06-10T15:50:57;8.80;;;5.22;;
16472;SDS011;8347;52.486;13.432;2023-06-10T15:53:44;8.70;;;5.13;;
16472;SDS011;8347;52.486;13.432;2023-06-10T15:56:31;8.32;;;5.10;;
16472;SDS011;8347;52.486;13.432;2023-06-10T15:59:18;5.90;;;4.80;;
16472;SDS011;8347;52.486;13.432;2023-06-10T16:02:05;6.78;;;4.35;;
16472;SDS011;8347;52.486;13.432;2023-06-10T16:04:52;6.45;;;4.95;;
16472;SDS011;8347;52.486;13.432;2023-06-10T16:07:38;6.38;;;4.97;;
16472;SDS011;8347;52.486;13.432;2023-06-10T16:10:26;7.72;;;4.53;;
16472;SDS011;8347;52.486;13.432;2023-06-10T16:13:12;4.90;;;4.47;;
16472;SDS011;8347;52.486;13.432;2023-06-10T16:15:59;7.53;;;5.05;;
16472;SDS011;8347;52.486;13.432;2023-06-10T16:18:45;6.80;;;3.92;;
16472;SDS011;8347;52.486;13.432;2023-06-10T16:21:32;5.88;;;4.43;;
16472;SDS011;8347;52.486;13.432;2023-06-10T16:24:18;6.40;;;4.90;;
16472;SDS011;8347;52.486;13.432;2023-06-10T16:27:04;9.13;;;4.85;;
16472;SDS011;8347;52.486;13.432;2023-06-10T16:29:53;7.10;;;4.03;;
16472;SDS011;8347;52.486;13.432;2023-06-10T16:32:39;8.02;;;4.68;;
16472;SDS011;8347;52.486;13.432;2023-06-10T16:35:26;7.53;;;4.03;;
16472;SDS011;8347;52.486;13.432;2023-06-10T16:38:12;6.57;;;5.05;;
16472;SDS011;8347;52.486;13.432;2023-06-10T16:40:59;9.02;;;4.55;;
16472;SDS011;8347;52.486;13.432;2023-06-10T16:43:45;4.15;;;3.63;;
16472;SDS011;8347;52.486;13.432;2023-06-10T16:46:31;5.95;;;3.90;;